Time;durP1;ratioP1;P1;durP2;ratioP2;P2;SDS_P1;SDS_P2;PMS_P1;PMS_P2;Temp;Humidity;BMP_temperature;BMP_pressure;BME280_temperature;BME280_humidity;BME280_pressure;Samples;Min_cycle;Max_cycle;Signal;HPM_P1;HPM_P2
2023/12/07 00:00:50;;;;;;;;;;;3.00;99.90;;;;;;5098539;27;19971;-75
2023/12/07 00:03:16;;;;;;;;;;;1.30;99.90;;;;;;5105105;27;19939;-76
2023/12/07 00:05:42;;;;;;;;;;;1.90;99.90;;;;;;5113580;27;20355;-77
2023/12/07 00:08:11;;;;;;;;;;;1.40;99.90;;;;;;5095230;27;19927;-75
2023/12/07 00:10:36;;;;;;;;;;;2.80;99.90;;;;;;5109522;27;19931;-76
2023/12/07 00:13:08;;;;;;;;;;;1.50;99.90;;;;;;5111593;27;19972;-75
2023/12/07 00:15:39;;;;;;;;;;;2.30;99.90;;;;;;5105320;27;19934;-76
2023/12/07 00:18:05;;;;;;;;;;;2.70;99.90;;;;;;5080850;27;19967;-76
2023/12/07 00:20:31;;;;;;;;;;;1.70;99.90;;;;;;5105377;27;20010;-76
2023/12/07 00:22:56;;;;;;;;;;;1.70;99.90;;;;;;5094927;27;20693;-76
2023/12/07 00:25:22;;;;;;;;;;;1.60;99.90;;;;;;5092562;27;20369;-76
2023/12/07 00:27:48;;;;;;;;;;;2.00;99.90;;;;;;5094761;27;19980;-77
2023/12/07 00:30:14;;;;;;;;;;;1.70;99.90;;;;;;5106279;27;20292;-76
2023/12/07 00:32:43;;;;;;;;;;;1.80;99.90;;;;;;5109366;27;19950;-75
2023/12/07 00:35:12;;;;;;;;;;;1.90;99.90;;;;;;5098208;27;19927;-75
2023/12/07 00:37:38;;;;;;;;;;;1.90;99.90;;;;;;5108109;27;19928;-77
2023/12/07 00:40:04;;;;;;;;;;;3.50;99.90;;;;;;5108665;27;19950;-76
2023/12/07 00:42:30;;;;;;;;;;;2.00;99.90;;;;;;5113467;27;20428;-75
2023/12/07 00:44:57;;;;;;;;;;;2.80;99.90;;;;;;5095413;27;20412;-77
2023/12/07 00:47:22;;;;;;;;;;;2.10;99.90;;;;;;5132169;27;19927;-76
2023/12/07 00:49:48;;;;;;;;;;;2.20;99.90;;;;;;5108916;27;19935;-76
2023/12/07 00:52:14;;;;;;;;;;;2.10;99.90;;;;;;5105117;27;19984;-75
2023/12/07 00:54:39;;;;;;;;;;;2.60;99.90;;;;;;5109221;27;20455;-74
2023/12/07 00:57:05;;;;;;;;;;;2.10;99.90;;;;;;5091362;27;19969;-74
2023/12/07 00:59:33;;;;;;;;;;;2.80;99.90;;;;;;5116518;27;19937;-76
2023/12/07 01:02:03;;;;;;;;;;;2.10;99.90;;;;;;5106298;27;20233;-75
2023/12/07 01:04:29;;;;;;;;;;;3.90;99.90;;;;;;5114086;27;20037;-78
2023/12/07 01:06:54;;;;;;;;;;;2.20;99.90;;;;;;5100353;27;19971;-76
2023/12/07 01:09:20;;;;;;;;;;;2.20;99.90;;;;;;5130161;27;20019;-77
2023/12/07 01:11:45;;;;;;;;;;;2.20;99.90;;;;;;5116544;27;19927;-75
2023/12/07 01:14:11;;;;;;;;;;;3.80;99.90;;;;;;5112420;27;19944;-75
2023/12/07 01:16:37;;;;;;;;;;;2.10;99.90;;;;;;5095227;27;19930;-74
2023/12/07 01:19:02;;;;;;;;;;;2.10;99.90;;;;;;5116008;27;19931;-74
2023/12/07 01:21:29;;;;;;;;;;;2.10;99.90;;;;;;5082617;27;20479;-77
2023/12/07 01:23:55;;;;;;;;;;;2.10;99.90;;;;;;5112147;27;19931;-75
2023/12/07 01:26:20;;;;;;;;;;;2.10;99.90;;;;;;5094330;27;20261;-74
2023/12/07 01:28:46;;;;;;;;;;;2.10;99.90;;;;;;5102255;27;19926;-75
2023/12/07 01:31:12;;;;;;;;;;;2.10;99.90;;;;;;5096034;27;19927;-74
2023/12/07 01:33:37;;;;;;;;;;;2.00;99.90;;;;;;5109920;27;19977;-75
2023/12/07 01:36:03;;;;;;;;;;;3.20;99.90;;;;;;5088792;27;19938;-74
2023/12/07 01:38:29;;;;;;;;;;;1.90;99.90;;;;;;5111581;27;19956;-77
2023/12/07 01:40:55;;;;;;;;;;;1.80;99.90;;;;;;5091499;27;19931;-76
2023/12/07 01:43:22;;;;;;;;;;;1.70;99.90;;;;;;5111618;27;19963;-75
2023/12/07 01:45:48;;;;;;;;;;;2.20;99.90;;;;;;5109501;27;19931;-75
2023/12/07 01:48:15;;;;;;;;;;;2.00;99.90;;;;;;5094722;27;20336;-76
2023/12/07 01:50:41;;;;;;;;;;;1.40;99.90;;;;;;5108696;27;19930;-75
2023/12/07 01:53:07;;;;;;;;;;;1.40;99.90;;;;;;5112042;27;20543;-75
2023/12/07 01:55:32;;;;;;;;;;;1.30;99.90;;;;;;5098111;27;20400;-74
2023/12/07 01:57:58;;;;;;;;;;;1.20;99.90;;;;;;5107701;27;19935;-76
2023/12/07 02:00:25;;;;;;;;;;;1.80;99.90;;;;;;5099874;27;20003;-75
2023/12/07 02:02:51;;;;;;;;;;;2.00;99.90;;;;;;5113643;27;19964;-75
2023/12/07 02:05:17;;;;;;;;;;;1.80;99.90;;;;;;5111759;27;19935;-74
2023/12/07 02:07:43;;;;;;;;;;;1.20;99.90;;;;;;5090182;27;20027;-75
2023/12/07 02:10:10;;;;;;;;;;;1.10;99.90;;;;;;5110566;27;19931;-77
2023/12/07 02:12:36;;;;;;;;;;;1.40;99.90;;;;;;5109376;27;19927;-75
2023/12/07 02:15:02;;;;;;;;;;;2.60;99.90;;;;;;5113211;27;20267;-75
2023/12/07 02:17:37;;;;;;;;;;;0.90;99.90;;;;;;5110135;27;19927;-74
2023/12/07 02:20:11;;;;;;;;;;;0.90;99.90;;;;;;5106526;27;19932;-75
2023/12/07 02:22:39;;;;;;;;;;;0.80;99.90;;;;;;5100190;27;20285;-75
2023/12/07 02:25:09;;;;;;;;;;;0.90;99.90;;;;;;5116700;27;19958;-75
2023/12/07 02:27:42;;;;;;;;;;;0.60;99.90;;;;;;5097246;27;20507;-76
2023/12/07 02:30:08;;;;;;;;;;;0.50;99.90;;;;;;5088715;27;20480;-75
2023/12/07 02:32:35;;;;;;;;;;;0.50;99.90;;;;;;5108739;27;20454;-75
2023/12/07 02:35:01;;;;;;;;;;;0.40;99.90;;;;;;5104879;27;19995;-75
2023/12/07 02:37:28;;;;;;;;;;;0.30;99.90;;;;;;5106560;27;19927;-75
2023/12/07 02:39:55;;;;;;;;;;;1.50;99.90;;;;;;5109563;27;20349;-75
2023/12/07 02:42:21;;;;;;;;;;;-1.00;99.90;;;;;;5093964;27;19923;-75
2023/12/07 02:44:48;;;;;;;;;;;0.30;99.90;;;;;;5097441;27;19931;-76
2023/12/07 02:47:14;;;;;;;;;;;0.00;99.90;;;;;;5110353;27;19969;-74
2023/12/07 02:49:39;;;;;;;;;;;2.00;99.90;;;;;;5111181;27;19967;-74
2023/12/07 02:52:05;;;;;;;;;;;-0.10;99.90;;;;;;5094274;27;20320;-75
2023/12/07 02:54:32;;;;;;;;;;;0.00;99.90;;;;;;5112417;27;19928;-75
2023/12/07 02:56:57;;;;;;;;;;;-0.10;99.90;;;;;;5107112;27;19924;-76
2023/12/07 02:59:23;;;;;;;;;;;0.40;99.90;;;;;;5080991;27;20250;-75
2023/12/07 03:01:50;;;;;;;;;;;-0.20;99.90;;;;;;5094492;27;19946;-74
2023/12/07 03:04:15;;;;;;;;;;;0.10;99.90;;;;;;5108517;27;19983;-76
2023/12/07 03:06:41;;;;;;;;;;;-0.30;99.90;;;;;;5106722;27;19927;-74
2023/12/07 03:09:08;;;;;;;;;;;-0.30;99.90;;;;;;5105351;27;20392;-74
2023/12/07 03:11:34;;;;;;;;;;;-0.30;99.90;;;;;;5105221;27;19930;-74
2023/12/07 03:13:59;;;;;;;;;;;1.20;99.90;;;;;;5126543;27;19931;-74
2023/12/07 03:16:25;;;;;;;;;;;0.70;99.90;;;;;;5105369;27;20274;-74
2023/12/07 03:18:51;;;;;;;;;;;-0.30;99.90;;;;;;5107023;27;19981;-74
2023/12/07 03:21:18;;;;;;;;;;;-0.30;99.90;;;;;;5107654;27;20255;-75
2023/12/07 03:23:44;;;;;;;;;;;-0.30;99.90;;;;;;5098344;27;19923;-74
2023/12/07 03:26:09;;;;;;;;;;;-0.30;99.90;;;;;;5097593;27;19927;-75
2023/12/07 03:28:35;;;;;;;;;;;-0.40;99.90;;;;;;5110360;27;19927;-74
2023/12/07 03:31:01;;;;;;;;;;;-0.40;99.90;;;;;;5089666;27;19927;-75
2023/12/07 03:33:27;;;;;;;;;;;-0.20;99.90;;;;;;5092130;27;19938;-74
2023/12/07 03:35:52;;;;;;;;;;;1.70;99.90;;;;;;5127481;27;19927;-75
2023/12/07 03:38:18;;;;;;;;;;;-0.10;99.90;;;;;;5106532;27;20036;-77
2023/12/07 03:40:47;;;;;;;;;;;1.00;99.90;;;;;;5096885;27;19985;-74
2023/12/07 03:43:13;;;;;;;;;;;-0.40;99.90;;;;;;5107874;27;19938;-76
2023/12/07 03:45:39;;;;;;;;;;;-0.40;99.90;;;;;;5130199;27;19928;-76
2023/12/07 03:48:04;;;;;;;;;;;-0.40;99.90;;;;;;5092575;27;20418;-75
2023/12/07 03:50:30;;;;;;;;;;;-0.40;99.90;;;;;;5126496;27;19919;-74
2023/12/07 03:52:55;;;;;;;;;;;0.80;99.90;;;;;;5110105;27;20094;-74
2023/12/07 03:55:22;;;;;;;;;;;1.00;99.90;;;;;;5092542;27;20045;-74
2023/12/07 03:57:48;;;;;;;;;;;-0.40;99.90;;;;;;5090476;27;20017;-76
2023/12/07 04:00:13;;;;;;;;;;;0.20;99.90;;;;;;5110248;27;19931;-76
2023/12/07 04:02:39;;;;;;;;;;;-0.40;99.90;;;;;;5094630;27;19927;-74
2023/12/07 04:05:05;;;;;;;;;;;-0.40;99.90;;;;;;5109636;27;19926;-74
2023/12/07 04:07:31;;;;;;;;;;;-0.40;99.90;;;;;;5107836;27;20471;-74
2023/12/07 04:09:57;;;;;;;;;;;-0.40;99.90;;;;;;5119256;27;19966;-74
2023/12/07 04:12:23;;;;;;;;;;;0.50;99.90;;;;;;5136089;27;20038;-74
2023/12/07 04:14:49;;;;;;;;;;;0.60;99.90;;;;;;5115263;27;20046;-76
2023/12/07 04:17:15;;;;;;;;;;;-0.20;99.90;;;;;;5112040;27;19927;-75
2023/12/07 04:19:41;;;;;;;;;;;-0.40;99.90;;;;;;5114123;27;20266;-74
2023/12/07 04:22:06;;;;;;;;;;;1.20;99.90;;;;;;5101208;27;19932;-74
2023/12/07 04:24:32;;;;;;;;;;;0.70;99.90;;;;;;5108691;27;19955;-74
2023/12/07 04:26:58;;;;;;;;;;;1.10;99.90;;;;;;5113024;27;19931;-76
2023/12/07 04:29:24;;;;;;;;;;;-0.40;99.90;;;;;;5098799;27;19942;-76
2023/12/07 04:31:49;;;;;;;;;;;1.40;99.90;;;;;;5114187;27;19919;-75
2023/12/07 04:34:15;;;;;;;;;;;-0.30;99.90;;;;;;5085513;27;20365;-74
2023/12/07 04:36:40;;;;;;;;;;;-0.50;99.90;;;;;;5112800;27;19938;-74
2023/12/07 04:39:06;;;;;;;;;;;-0.50;99.90;;;;;;5091996;27;20276;-74
2023/12/07 04:41:32;;;;;;;;;;;-0.60;99.90;;;;;;5100473;27;20021;-74
2023/12/07 04:43:57;;;;;;;;;;;0.90;99.90;;;;;;5110435;27;19954;-74
2023/12/07 04:46:26;;;;;;;;;;;-0.60;99.90;;;;;;5129535;27;19930;-74
2023/12/07 04:48:51;;;;;;;;;;;-0.60;99.90;;;;;;5083272;27;20278;-75
2023/12/07 04:51:17;;;;;;;;;;;0.50;99.90;;;;;;5103828;27;19926;-74
2023/12/07 04:53:43;;;;;;;;;;;0.10;99.90;;;;;;5091708;27;20412;-73
2023/12/07 04:56:08;;;;;;;;;;;-0.70;99.90;;;;;;5128011;27;19934;-76
2023/12/07 04:58:34;;;;;;;;;;;-0.70;99.90;;;;;;5110962;27;19931;-76
2023/12/07 05:01:00;;;;;;;;;;;-0.70;99.90;;;;;;5115562;27;19939;-76
2023/12/07 05:03:25;;;;;;;;;;;-0.30;99.90;;;;;;5109104;27;19928;-74
2023/12/07 05:05:51;;;;;;;;;;;-0.70;99.90;;;;;;5084986;27;19923;-75
2023/12/07 05:08:17;;;;;;;;;;;0.40;99.90;;;;;;5107813;27;19934;-73
2023/12/07 05:10:43;;;;;;;;;;;-0.80;99.90;;;;;;5101700;27;20319;-73
2023/12/07 05:13:09;;;;;;;;;;;0.90;99.90;;;;;;5131699;27;19923;-75
2023/12/07 05:15:36;;;;;;;;;;;1.00;99.90;;;;;;5103851;27;19927;-75
2023/12/07 05:18:02;;;;;;;;;;;-0.90;99.90;;;;;;5101930;27;19924;-75
2023/12/07 05:20:29;;;;;;;;;;;-0.90;99.90;;;;;;5101777;27;19934;-72
2023/12/07 05:22:55;;;;;;;;;;;-0.90;99.90;;;;;;5113315;27;19927;-74
2023/12/07 05:25:20;;;;;;;;;;;-0.30;99.90;;;;;;5115496;27;20478;-75
2023/12/07 05:27:46;;;;;;;;;;;-0.90;99.90;;;;;;5108201;27;19923;-76
2023/12/07 05:30:12;;;;;;;;;;;-1.00;99.90;;;;;;5109077;27;19927;-76
2023/12/07 05:32:38;;;;;;;;;;;-1.00;99.90;;;;;;5100828;27;19942;-77
2023/12/07 05:35:05;;;;;;;;;;;-1.00;99.90;;;;;;5110290;27;19927;-74
2023/12/07 05:37:31;;;;;;;;;;;-1.00;99.90;;;;;;5109699;27;19927;-75
2023/12/07 05:39:57;;;;;;;;;;;-0.10;99.90;;;;;;5111642;27;20541;-76
2023/12/07 05:42:22;;;;;;;;;;;-1.00;99.90;;;;;;5104756;27;19963;-76
2023/12/07 05:44:48;;;;;;;;;;;-1.00;99.90;;;;;;5094371;27;19974;-76
2023/12/07 05:47:14;;;;;;;;;;;0.60;99.90;;;;;;5107589;27;19931;-74
2023/12/07 05:49:39;;;;;;;;;;;0.90;99.90;;;;;;5131558;27;20069;-75
2023/12/07 05:52:05;;;;;;;;;;;-0.40;99.90;;;;;;5133656;27;19981;-74
2023/12/07 05:54:31;;;;;;;;;;;-1.10;99.90;;;;;;5100291;27;19935;-74
2023/12/07 05:56:57;;;;;;;;;;;0.50;99.90;;;;;;5097584;27;19923;-74
2023/12/07 05:59:22;;;;;;;;;;;-1.10;99.90;;;;;;5112014;27;20365;-74
2023/12/07 06:01:51;;;;;;;;;;;-1.10;99.90;;;;;;5110090;27;20373;-76
2023/12/07 06:04:16;;;;;;;;;;;-0.50;99.90;;;;;;5114293;27;19934;-75
2023/12/07 06:06:42;;;;;;;;;;;-1.10;99.90;;;;;;5098672;27;19923;-74
2023/12/07 06:09:08;;;;;;;;;;;-1.10;99.90;;;;;;5096470;27;20549;-74
2023/12/07 06:11:34;;;;;;;;;;;-1.10;99.90;;;;;;5103829;27;19981;-74
2023/12/07 06:14:00;;;;;;;;;;;0.70;99.90;;;;;;5101851;27;19933;-74
2023/12/07 06:16:26;;;;;;;;;;;0.60;99.90;;;;;;5119673;27;20084;-74
2023/12/07 06:18:52;;;;;;;;;;;-1.20;99.90;;;;;;5105841;27;20444;-77
2023/12/07 06:21:17;;;;;;;;;;;-1.00;99.90;;;;;;5092488;27;19927;-75
2023/12/07 06:23:46;;;;;;;;;;;0.30;99.90;;;;;;5106473;27;19931;-76
2023/12/07 06:26:11;;;;;;;;;;;-1.20;99.90;;;;;;5103990;27;20446;-75
2023/12/07 06:28:37;;;;;;;;;;;-1.30;99.90;;;;;;5092889;27;19923;-75
2023/12/07 06:31:09;;;;;;;;;;;-1.30;99.90;;;;;;5092315;27;19927;-73
2023/12/07 06:33:35;;;;;;;;;;;-1.30;99.90;;;;;;5093729;27;19923;-73
2023/12/07 06:36:03;;;;;;;;;;;-1.30;99.90;;;;;;5107255;27;19927;-75
2023/12/07 06:38:29;;;;;;;;;;;-1.30;99.90;;;;;;5090458;27;21855;-77
2023/12/07 06:40:54;;;;;;;;;;;-1.30;99.90;;;;;;5108159;27;20019;-76
2023/12/07 06:43:20;;;;;;;;;;;-1.30;99.90;;;;;;5105974;27;20362;-74
2023/12/07 06:45:45;;;;;;;;;;;-0.20;99.90;;;;;;5105230;27;20743;-74
2023/12/07 06:48:11;;;;;;;;;;;-1.20;99.90;;;;;;5092582;27;20369;-73
2023/12/07 06:50:37;;;;;;;;;;;-1.20;99.90;;;;;;5101826;27;19950;-76
2023/12/07 06:53:03;;;;;;;;;;;-1.70;99.90;;;;;;5078040;27;19928;-74
2023/12/07 06:55:28;;;;;;;;;;;-1.20;99.90;;;;;;5106821;27;19931;-74
2023/12/07 06:57:54;;;;;;;;;;;-1.30;99.90;;;;;;5077975;27;20477;-74
2023/12/07 07:00:20;;;;;;;;;;;-0.90;99.90;;;;;;5102484;27;20583;-76
2023/12/07 07:02:45;;;;;;;;;;;-0.60;99.90;;;;;;5094484;27;21072;-73
2023/12/07 07:05:11;;;;;;;;;;;-0.90;99.90;;;;;;5104919;27;19930;-73
2023/12/07 07:07:37;;;;;;;;;;;1.00;99.90;;;;;;5092815;27;19930;-73
2023/12/07 07:10:03;;;;;;;;;;;-0.60;99.90;;;;;;5101408;27;19980;-76
2023/12/07 07:12:34;;;;;;;;;;;-1.30;99.90;;;;;;5091055;27;19930;-75
2023/12/07 07:15:00;;;;;;;;;;;-1.30;99.90;;;;;;5092632;27;19919;-73
2023/12/07 07:17:25;;;;;;;;;;;-1.20;99.90;;;;;;5091829;27;20507;-73
2023/12/07 07:19:51;;;;;;;;;;;-0.90;99.90;;;;;;5089483;27;20017;-75
2023/12/07 07:22:17;;;;;;;;;;;-0.50;99.90;;;;;;5096498;27;20277;-74
2023/12/07 07:24:42;;;;;;;;;;;-1.30;99.90;;;;;;5105656;27;20509;-74
2023/12/07 07:27:08;;;;;;;;;;;-1.20;99.90;;;;;;5105450;27;20309;-75
2023/12/07 07:29:33;;;;;;;;;;;-1.20;99.90;;;;;;5103878;27;19938;-76
2023/12/07 07:31:59;;;;;;;;;;;-1.20;99.90;;;;;;5111517;27;19923;-74
2023/12/07 07:34:25;;;;;;;;;;;-1.20;99.90;;;;;;5096722;27;20210;-75
2023/12/07 07:36:50;;;;;;;;;;;-1.20;99.90;;;;;;5126137;27;19960;-76
2023/12/07 07:39:16;;;;;;;;;;;-1.20;99.90;;;;;;5105960;27;19981;-77
2023/12/07 07:41:42;;;;;;;;;;;-1.20;99.90;;;;;;5091784;27;20511;-72
2023/12/07 07:44:07;;;;;;;;;;;-0.70;99.90;;;;;;5099679;27;19930;-74
2023/12/07 07:46:33;;;;;;;;;;;-1.10;99.90;;;;;;5104989;27;19989;-76
2023/12/07 07:48:59;;;;;;;;;;;-1.20;99.90;;;;;;5101546;27;19931;-76
2023/12/07 07:51:31;;;;;;;;;;;-0.70;99.90;;;;;;5111814;27;19927;-74
2023/12/07 07:53:58;;;;;;;;;;;-0.60;99.90;;;;;;5115453;27;19965;-75
2023/12/07 07:56:26;;;;;;;;;;;0.60;99.90;;;;;;5127769;27;19919;-75
2023/12/07 07:58:52;;;;;;;;;;;-0.60;99.90;;;;;;5103329;27;20064;-75
2023/12/07 08:01:17;;;;;;;;;;;-1.20;99.90;;;;;;5117029;27;19929;-74
2023/12/07 08:03:43;;;;;;;;;;;-1.20;99.90;;;;;;5139818;27;19931;-75
2023/12/07 08:06:09;;;;;;;;;;;-1.00;99.90;;;;;;5115804;27;19933;-76
2023/12/07 08:08:34;;;;;;;;;;;-0.40;99.90;;;;;;5112417;27;19927;-75
2023/12/07 08:11:01;;;;;;;;;;;-1.20;99.90;;;;;;5097517;27;19919;-74
2023/12/07 08:13:27;;;;;;;;;;;-0.50;99.90;;;;;;5112563;27;19931;-74
2023/12/07 08:15:53;;;;;;;;;;;1.00;99.90;;;;;;5118034;27;19989;-77
2023/12/07 08:18:19;;;;;;;;;;;-0.60;99.90;;;;;;5099138;27;20042;-75
2023/12/07 08:20:44;;;;;;;;;;;0.90;99.90;;;;;;5117930;27;19928;-75
2023/12/07 08:23:11;;;;;;;;;;;-1.00;99.90;;;;;;5112808;27;19939;-74
2023/12/07 08:25:38;;;;;;;;;;;-0.90;99.90;;;;;;5109283;27;19931;-77
2023/12/07 08:28:04;;;;;;;;;;;0.80;99.90;;;;;;5109113;27;19935;-74
2023/12/07 08:30:30;;;;;;;;;;;-0.30;99.90;;;;;;5091835;27;20280;-77
2023/12/07 08:32:55;;;;;;;;;;;0.80;99.90;;;;;;5085403;27;19923;-74
2023/12/07 08:35:21;;;;;;;;;;;0.30;99.90;;;;;;5095157;27;19957;-75
2023/12/07 08:37:48;;;;;;;;;;;-0.70;99.90;;;;;;5111216;27;19946;-75
2023/12/07 08:40:15;;;;;;;;;;;-0.60;99.90;;;;;;5107051;27;19980;-76
2023/12/07 08:42:41;;;;;;;;;;;-0.20;99.90;;;;;;5079374;27;19927;-76
2023/12/07 08:45:06;;;;;;;;;;;0.60;99.90;;;;;;5102910;27;19931;-77
2023/12/07 08:47:33;;;;;;;;;;;1.50;99.90;;;;;;5130323;27;19927;-75
2023/12/07 08:49:59;;;;;;;;;;;2.20;99.90;;;;;;5089880;27;19971;-76
2023/12/07 08:52:24;;;;;;;;;;;3.10;99.90;;;;;;5110722;27;20038;-75
2023/12/07 08:54:50;;;;;;;;;;;3.90;99.90;;;;;;5108292;27;19934;-77
2023/12/07 08:57:17;;;;;;;;;;;3.30;99.90;;;;;;5091259;27;19955;-76
2023/12/07 08:59:43;;;;;;;;;;;3.00;99.90;;;;;;5106064;27;20158;-75
2023/12/07 09:02:08;;;;;;;;;;;2.50;99.90;;;;;;5093840;27;19927;-77
2023/12/07 09:04:34;;;;;;;;;;;2.70;99.90;;;;;;5097071;27;19930;-76
2023/12/07 09:07:01;;;;;;;;;;;1.80;99.90;;;;;;5099708;27;19954;-75
2023/12/07 09:09:26;;;;;;;;;;;1.50;99.90;;;;;;5102606;27;19919;-75
2023/12/07 09:11:53;;;;;;;;;;;1.70;99.90;;;;;;5113545;27;19979;-74
2023/12/07 09:14:18;;;;;;;;;;;2.50;99.90;;;;;;5091778;27;20014;-76
2023/12/07 09:16:44;;;;;;;;;;;1.60;99.90;;;;;;5108339;27;19933;-75
2023/12/07 09:19:11;;;;;;;;;;;1.10;99.90;;;;;;5114098;27;20369;-75
2023/12/07 09:21:37;;;;;;;;;;;1.00;99.90;;;;;;5087796;27;19927;-76
2023/12/07 09:24:03;;;;;;;;;;;1.20;99.90;;;;;;5107526;27;19939;-76
2023/12/07 09:26:29;;;;;;;;;;;1.10;99.90;;;;;;5109784;27;19966;-75
2023/12/07 09:28:54;;;;;;;;;;;2.00;99.90;;;;;;5116180;27;20267;-76
2023/12/07 09:31:20;;;;;;;;;;;1.60;99.90;;;;;;5086973;27;19975;-75
2023/12/07 09:33:47;;;;;;;;;;;1.40;99.90;;;;;;5087311;27;19974;-75
2023/12/07 09:36:18;;;;;;;;;;;0.70;99.90;;;;;;5108433;27;19923;-74
2023/12/07 09:38:43;;;;;;;;;;;1.70;99.90;;;;;;5110331;27;19927;-75
2023/12/07 09:41:09;;;;;;;;;;;1.90;99.90;;;;;;5106341;27;20019;-76
2023/12/07 09:43:35;;;;;;;;;;;1.40;99.90;;;;;;5091412;27;20370;-75
2023/12/07 09:46:01;;;;;;;;;;;2.40;99.90;;;;;;5090751;27;20594;-75
2023/12/07 09:48:28;;;;;;;;;;;2.50;99.90;;;;;;5105183;27;19974;-75
2023/12/07 09:50:55;;;;;;;;;;;2.50;99.90;;;;;;5096489;27;19937;-76
2023/12/07 09:53:21;;;;;;;;;;;2.70;99.90;;;;;;5104222;27;19950;-75
2023/12/07 09:55:46;;;;;;;;;;;3.00;99.90;;;;;;5107148;27;19931;-75
2023/12/07 09:58:13;;;;;;;;;;;4.50;99.90;;;;;;5090092;27;20315;-75
2023/12/07 10:00:38;;;;;;;;;;;4.60;99.90;;;;;;5106478;27;19945;-76
2023/12/07 10:03:07;;;;;;;;;;;3.80;99.90;;;;;;5108280;27;19927;-75
2023/12/07 10:05:34;;;;;;;;;;;4.20;99.90;;;;;;5091571;27;19928;-75
2023/12/07 10:07:59;;;;;;;;;;;4.90;99.90;;;;;;5109842;27;21097;-76
2023/12/07 10:10:25;;;;;;;;;;;4.40;99.90;;;;;;5095589;27;19938;-76
2023/12/07 10:12:56;;;;;;;;;;;4.40;99.90;;;;;;5109291;27;19970;-75
2023/12/07 10:15:23;;;;;;;;;;;4.80;99.90;;;;;;5110103;27;20012;-75
2023/12/07 10:17:50;;;;;;;;;;;4.70;99.90;;;;;;5108880;27;19927;-76
2023/12/07 10:20:23;;;;;;;;;;;5.20;99.90;;;;;;5093709;27;19927;-75
2023/12/07 10:22:49;;;;;;;;;;;5.90;99.90;;;;;;5116127;27;20048;-77
2023/12/07 10:25:15;;;;;;;;;;;6.60;99.90;;;;;;5106583;27;19927;-75
2023/12/07 10:27:42;;;;;;;;;;;7.50;99.90;;;;;;5107384;27;19929;-76
2023/12/07 10:30:14;;;;;;;;;;;8.00;99.90;;;;;;5091473;27;19981;-77
2023/12/07 10:32:39;;;;;;;;;;;8.20;99.90;;;;;;5106527;27;20006;-77
2023/12/07 10:35:09;;;;;;;;;;;7.80;99.90;;;;;;5096694;27;19923;-76
2023/12/07 10:37:35;;;;;;;;;;;7.90;99.90;;;;;;5101417;27;20043;-76
2023/12/07 10:40:02;;;;;;;;;;;7.50;99.90;;;;;;5100644;27;20552;-76
2023/12/07 10:42:30;;;;;;;;;;;7.70;99.90;;;;;;5106331;27;20478;-76
2023/12/07 10:44:57;;;;;;;;;;;7.70;99.90;;;;;;5087150;27;19931;-76
2023/12/07 10:47:23;;;;;;;;;;;7.20;99.90;;;;;;5107920;27;19931;-76
2023/12/07 10:49:52;;;;;;;;;;;6.70;99.90;;;;;;5108631;27;19943;-75
2023/12/07 10:52:20;;;;;;;;;;;6.40;99.90;;;;;;5103230;27;20038;-76
2023/12/07 10:54:58;;;;;;;;;;;6.00;99.90;;;;;;5109616;27;19936;-76
2023/12/07 10:57:24;;;;;;;;;;;5.70;99.90;;;;;;5107037;27;19927;-75
2023/12/07 10:59:52;;;;;;;;;;;5.30;99.90;;;;;;5095150;27;19970;-76
2023/12/07 11:02:18;;;;;;;;;;;5.10;99.90;;;;;;5103943;27;19934;-75
2023/12/07 11:04:45;;;;;;;;;;;4.90;99.90;;;;;;5109225;27;20331;-76
2023/12/07 11:07:12;;;;;;;;;;;4.80;99.90;;;;;;5095793;27;19923;-76
2023/12/07 11:09:43;;;;;;;;;;;4.60;99.90;;;;;;5094476;27;19934;-76
2023/12/07 11:12:17;;;;;;;;;;;4.50;99.90;;;;;;5085973;27;19927;-75
2023/12/07 11:14:44;;;;;;;;;;;4.30;99.90;;;;;;5099705;27;19923;-76
2023/12/07 11:17:10;;;;;;;;;;;4.20;99.90;;;;;;5100369;27;19931;-76
2023/12/07 11:19:36;;;;;;;;;;;4.10;99.90;;;;;;5078581;27;19927;-76
2023/12/07 11:22:09;;;;;;;;;;;3.90;99.90;;;;;;5101869;27;19930;-76
2023/12/07 11:24:38;;;;;;;;;;;3.90;99.90;;;;;;5105668;27;19944;-75
2023/12/07 11:27:04;;;;;;;;;;;3.80;99.90;;;;;;5091631;27;19931;-75
2023/12/07 11:29:30;;;;;;;;;;;3.80;99.90;;;;;;5105809;27;20004;-76
2023/12/07 11:31:57;;;;;;;;;;;3.70;99.90;;;;;;5102804;27;19931;-75
2023/12/07 11:34:42;;;;;;;;;;;4.30;99.90;;;;;;5108496;27;20313;-75
2023/12/07 11:37:08;;;;;;;;;;;3.60;99.90;;;;;;5092465;27;19931;-75
2023/12/07 11:39:38;;;;;;;;;;;3.50;99.90;;;;;;5090575;27;19931;-74
2023/12/07 11:42:10;;;;;;;;;;;3.40;99.90;;;;;;5087417;27;20017;-74
2023/12/07 11:44:39;;;;;;;;;;;3.40;99.90;;;;;;5093163;27;19923;-76
2023/12/07 11:47:06;;;;;;;;;;;3.40;99.90;;;;;;5107151;27;20447;-76
2023/12/07 11:49:31;;;;;;;;;;;3.30;99.90;;;;;;5102887;27;19927;-76
2023/12/07 11:51:57;;;;;;;;;;;2.70;99.90;;;;;;5097223;27;19930;-75
2023/12/07 11:54:23;;;;;;;;;;;3.20;99.90;;;;;;5103324;27;20789;-75
2023/12/07 11:56:55;;;;;;;;;;;3.90;99.90;;;;;;5085453;27;20171;-76
2023/12/07 11:59:22;;;;;;;;;;;3.10;99.90;;;;;;5101718;27;20266;-75
2023/12/07 12:01:48;;;;;;;;;;;3.40;99.90;;;;;;5104379;27;19931;-76
2023/12/07 12:04:17;;;;;;;;;;;3.10;99.90;;;;;;5102276;27;20002;-76
2023/12/07 12:06:47;;;;;;;;;;;3.10;99.90;;;;;;5104219;27;19952;-77
2023/12/07 12:09:13;;;;;;;;;;;3.00;99.90;;;;;;5088156;27;19938;-75
2023/12/07 12:11:43;;;;;;;;;;;3.00;99.90;;;;;;5088891;27;19927;-76
2023/12/07 12:14:09;;;;;;;;;;;3.60;99.90;;;;;;5100995;27;19949;-75
2023/12/07 12:16:40;;;;;;;;;;;3.00;99.90;;;;;;5105634;27;19980;-75
2023/12/07 12:19:06;;;;;;;;;;;3.10;99.90;;;;;;5087211;27;19958;-75
2023/12/07 12:21:38;;;;;;;;;;;3.30;99.90;;;;;;5104814;27;20293;-74
2023/12/07 12:24:05;;;;;;;;;;;3.20;99.90;;;;;;5104162;27;19923;-75
2023/12/07 12:26:32;;;;;;;;;;;3.10;99.90;;;;;;5072709;27;19926;-75
2023/12/07 12:28:58;;;;;;;;;;;3.00;99.90;;;;;;5089716;27;19931;-76
2023/12/07 12:31:24;;;;;;;;;;;3.00;99.90;;;;;;5085815;27;19976;-75
2023/12/07 12:33:50;;;;;;;;;;;2.90;99.90;;;;;;5105599;27;20010;-75
2023/12/07 12:36:18;;;;;;;;;;;2.80;99.90;;;;;;5106042;27;20084;-76
2023/12/07 12:38:46;;;;;;;;;;;2.70;99.90;;;;;;5103574;27;19935;-76
2023/12/07 12:41:12;;;;;;;;;;;3.00;99.90;;;;;;5110729;27;20362;-77
2023/12/07 12:43:37;;;;;;;;;;;2.50;99.90;;;;;;5110917;27;19923;-75
2023/12/07 12:46:03;;;;;;;;;;;2.40;99.90;;;;;;5110300;27;19984;-75
2023/12/07 12:48:29;;;;;;;;;;;2.30;99.90;;;;;;5093409;27;19934;-76
2023/12/07 12:50:55;;;;;;;;;;;1.90;99.90;;;;;;5122129;27;19927;-75
2023/12/07 12:53:21;;;;;;;;;;;2.10;99.90;;;;;;5122132;27;19927;-76
2023/12/07 12:55:46;;;;;;;;;;;2.00;99.90;;;;;;5110412;27;19931;-75
2023/12/07 12:58:12;;;;;;;;;;;1.90;99.90;;;;;;5112414;27;20933;-75
2023/12/07 13:00:38;;;;;;;;;;;3.50;99.90;;;;;;5105029;27;19934;-75
2023/12/07 13:03:04;;;;;;;;;;;1.70;99.90;;;;;;5107814;27;19934;-75
2023/12/07 13:05:32;;;;;;;;;;;1.50;99.90;;;;;;5098726;27;19923;-75
2023/12/07 13:07:59;;;;;;;;;;;2.80;99.90;;;;;;5111845;27;20326;-76
2023/12/07 13:10:25;;;;;;;;;;;1.50;99.90;;;;;;5090652;27;19923;-75
2023/12/07 13:12:51;;;;;;;;;;;1.20;99.90;;;;;;5116078;27;19923;-75
2023/12/07 13:15:16;;;;;;;;;;;1.50;99.90;;;;;;5112534;27;19927;-75
2023/12/07 13:17:43;;;;;;;;;;;1.00;99.90;;;;;;5111918;27;19935;-75
2023/12/07 13:20:15;;;;;;;;;;;1.00;99.90;;;;;;5097514;27;19930;-74
2023/12/07 13:22:43;;;;;;;;;;;0.90;99.90;;;;;;5109465;27;19927;-74
2023/12/07 13:25:09;;;;;;;;;;;0.90;99.90;;;;;;5112967;27;19933;-75
2023/12/07 13:27:35;;;;;;;;;;;0.90;99.90;;;;;;5102289;27;19927;-75
2023/12/07 13:30:01;;;;;;;;;;;0.80;99.90;;;;;;5095194;27;20367;-75
2023/12/07 13:32:27;;;;;;;;;;;0.80;99.90;;;;;;5105772;27;20020;-75
2023/12/07 13:34:53;;;;;;;;;;;0.80;99.90;;;;;;5113814;27;20374;-74
2023/12/07 13:37:21;;;;;;;;;;;0.70;99.90;;;;;;5107403;27;19970;-74
2023/12/07 13:39:52;;;;;;;;;;;0.70;99.90;;;;;;5093420;27;19931;-74
2023/12/07 13:42:18;;;;;;;;;;;0.70;99.90;;;;;;5101609;27;19932;-74
2023/12/07 13:44:44;;;;;;;;;;;0.60;99.90;;;;;;5105587;27;20508;-74
2023/12/07 13:47:10;;;;;;;;;;;1.00;99.90;;;;;;5078679;27;19928;-74
2023/12/07 13:49:36;;;;;;;;;;;1.10;99.90;;;;;;5091228;27;19930;-74
2023/12/07 13:52:02;;;;;;;;;;;2.10;99.90;;;;;;5101539;27;20014;-75
2023/12/07 13:54:27;;;;;;;;;;;1.10;99.90;;;;;;5104557;27;19927;-74
2023/12/07 13:56:53;;;;;;;;;;;0.50;99.90;;;;;;5088243;27;20258;-75
2023/12/07 13:59:19;;;;;;;;;;;0.90;99.90;;;;;;5091909;27;20349;-75
2023/12/07 14:01:50;;;;;;;;;;;0.50;99.90;;;;;;5093575;27;19927;-75
2023/12/07 14:04:16;;;;;;;;;;;1.60;99.90;;;;;;5101299;27;19931;-74
2023/12/07 14:06:41;;;;;;;;;;;0.50;99.90;;;;;;5101451;27;20492;-75
2023/12/07 14:09:07;;;;;;;;;;;0.50;99.90;;;;;;5075136;27;20464;-75
2023/12/07 14:11:39;;;;;;;;;;;0.80;99.90;;;;;;5088007;27;19949;-75
2023/12/07 14:14:05;;;;;;;;;;;0.40;99.90;;;;;;5100625;27;19938;-75
2023/12/07 14:16:30;;;;;;;;;;;0.80;99.90;;;;;;5077457;27;19935;-75
2023/12/07 14:18:56;;;;;;;;;;;0.40;99.90;;;;;;5104251;27;19923;-75
2023/12/07 14:21:22;;;;;;;;;;;0.40;99.90;;;;;;5108805;27;20456;-74